Hovedside
METAR-TAF:

METAR-TAF

Lufthavner :

Sandnessjøen, Norge

Sandnessjøen lufthavn. Stokka

breddegrad: 65-58N, lengdegrad: 012-28E, høyde over havet: 1 m

Gjeldene værobservasjon

Denne rapporten ble laget for 24 minutter siden, klokken 13:20 UTC
Vind 6 kt fra Øst-nordøst, skiftende mellom Nord-nordøst og Øst
Temperatur -5°C
Luftfuktighet 32%
Trykk 1042 hPa
Sikt 10 km eller mer
ingen skyer under 1500 m og ingen bygeskyer

METAR: ENST 251320Z 06006KT 030V090 CAVOK M05/M19 Q1042 RMK WIND 300FT 09007KT

Tid: 14:44 (13:44 UTC)


TAF: fraværende

Værobservasjoner og værvarsel for over 4000 flyplasser (METAR- og TAF-rapporter).

Tilgjengelige stasjoner er representert av de røde og gule prikkene på kartet.

Hold musepekeren over prikken for å se navnet på stasjonen.

Klikk så for å se værobservasjoner og -varsler.

For å forandre kartet kan du klikke på den grønne knappen med svart kryss for å zoome inn, på den grønne knappen med strek for å zoome ut, eller på de grønne pilene for å se tilstøtende kart.


METAR-TAF: